sensor_id;sensor_type;location;lat;lon;timestamp;pressure;altitude;pressure_sealevel;temperature;humidity
77027;BME280;65956;52.986;17.490;2023-03-19T00:00:43;100273.00;;;4.76;66.21
77027;BME280;65956;52.986;17.490;2023-03-19T00:03:30;100268.72;;;4.80;66.34
77027;BME280;65956;52.986;17.490;2023-03-19T00:05:57;100272.05;;;4.88;66.39
77027;BME280;65956;52.986;17.490;2023-03-19T00:08:24;100273.22;;;4.92;66.17
77027;BME280;65956;52.986;17.490;2023-03-19T00:10:51;100272.95;;;4.94;66.02
77027;BME280;65956;52.986;17.490;2023-03-19T00:13:18;100269.80;;;4.97;66.08
77027;BME280;65956;52.986;17.490;2023-03-19T00:15:45;100269.47;;;4.97;66.28
77027;BME280;65956;52.986;17.490;2023-03-19T00:18:12;100272.40;;;4.97;66.33
77027;BME280;65956;52.986;17.490;2023-03-19T00:20:40;100273.64;;;4.98;66.18
77027;BME280;65956;52.986;17.490;2023-03-19T00:23:06;100278.59;;;5.00;66.27
77027;BME280;65956;52.986;17.490;2023-03-19T00:25:34;100280.77;;;4.99;66.35
77027;BME280;65956;52.986;17.490;2023-03-19T00:28:01;100280.16;;;4.99;66.33
77027;BME280;65956;52.986;17.490;2023-03-19T00:30:28;100281.60;;;5.02;66.29
77027;BME280;65956;52.986;17.490;2023-03-19T00:32:55;100276.63;;;5.06;66.10
77027;BME280;65956;52.986;17.490;2023-03-19T00:35:22;100282.98;;;5.08;66.51
77027;BME280;65956;52.986;17.490;2023-03-19T00:37:49;100282.94;;;5.02;66.57
77027;BME280;65956;52.986;17.490;2023-03-19T00:40:15;100279.77;;;5.00;66.69
77027;BME280;65956;52.986;17.490;2023-03-19T00:42:42;100280.97;;;5.00;66.76
77027;BME280;65956;52.986;17.490;2023-03-19T00:45:11;100275.17;;;5.01;66.66
77027;BME280;65956;52.986;17.490;2023-03-19T00:47:38;100276.62;;;5.02;66.61
77027;BME280;65956;52.986;17.490;2023-03-19T00:50:06;100279.63;;;5.04;66.53
77027;BME280;65956;52.986;17.490;2023-03-19T00:52:33;100282.01;;;5.09;66.88
77027;BME280;65956;52.986;17.490;2023-03-19T00:55:00;100279.86;;;5.13;66.93
77027;BME280;65956;52.986;17.490;2023-03-19T00:57:27;100274.13;;;5.09;67.02
77027;BME280;65956;52.986;17.490;2023-03-19T00:59:54;100279.45;;;5.06;66.88
77027;BME280;65956;52.986;17.490;2023-03-19T01:02:20;100279.02;;;5.05;66.98
77027;BME280;65956;52.986;17.490;2023-03-19T01:04:47;100275.94;;;5.05;67.18
77027;BME280;65956;52.986;17.490;2023-03-19T01:07:14;100274.11;;;5.04;67.42
77027;BME280;65956;52.986;17.490;2023-03-19T01:09:41;100274.72;;;5.00;67.17
77027;BME280;65956;52.986;17.490;2023-03-19T01:12:08;100272.92;;;4.96;67.66
77027;BME280;65956;52.986;17.490;2023-03-19T01:14:35;100279.41;;;4.87;67.57
77027;BME280;65956;52.986;17.490;2023-03-19T01:17:02;100284.03;;;4.78;67.71
77027;BME280;65956;52.986;17.490;2023-03-19T01:19:29;100284.77;;;4.71;67.93
77027;BME280;65956;52.986;17.490;2023-03-19T01:21:56;100286.06;;;4.71;68.07
77027;BME280;65956;52.986;17.490;2023-03-19T01:24:23;100289.48;;;4.76;67.94
77027;BME280;65956;52.986;17.490;2023-03-19T01:26:55;100294.98;;;4.76;67.95
77027;BME280;65956;52.986;17.490;2023-03-19T01:29:32;100296.73;;;4.72;67.93
77027;BME280;65956;52.986;17.490;2023-03-19T01:32:08;100293.17;;;4.74;67.98
77027;BME280;65956;52.986;17.490;2023-03-19T01:34:53;100287.27;;;4.80;68.53
77027;BME280;65956;52.986;17.490;2023-03-19T01:37:20;100287.31;;;4.83;68.44
77027;BME280;65956;52.986;17.490;2023-03-19T01:39:48;100281.58;;;4.82;68.29
77027;BME280;65956;52.986;17.490;2023-03-19T01:42:15;100281.27;;;4.78;68.49
77027;BME280;65956;52.986;17.490;2023-03-19T01:45:32;100276.63;;;4.74;68.70
77027;BME280;65956;52.986;17.490;2023-03-19T01:48:26;100276.51;;;4.71;68.72
77027;BME280;65956;52.986;17.490;2023-03-19T01:51:02;100283.11;;;4.67;68.73
77027;BME280;65956;52.986;17.490;2023-03-19T01:53:52;100281.65;;;4.64;68.89
77027;BME280;65956;52.986;17.490;2023-03-19T01:56:35;100286.01;;;4.62;68.72
77027;BME280;65956;52.986;17.490;2023-03-19T01:59:25;100289.84;;;4.63;68.63
77027;BME280;65956;52.986;17.490;2023-03-19T02:02:33;100289.41;;;4.57;68.83
77027;BME280;65956;52.986;17.490;2023-03-19T02:05:11;100286.01;;;4.50;68.85
77027;BME280;65956;52.986;17.490;2023-03-19T02:07:42;100285.65;;;4.49;68.80
77027;BME280;65956;52.986;17.490;2023-03-19T02:10:14;100282.86;;;4.44;68.93
77027;BME280;65956;52.986;17.490;2023-03-19T02:12:42;100283.62;;;4.36;68.96
77027;BME280;65956;52.986;17.490;2023-03-19T02:15:09;100281.11;;;4.31;69.02
77027;BME280;65956;52.986;17.490;2023-03-19T02:17:37;100280.21;;;4.26;69.11
77027;BME280;65956;52.986;17.490;2023-03-19T02:23:04;100278.67;;;4.25;69.12
77027;BME280;65956;52.986;17.490;2023-03-19T02:28:11;100276.52;;;4.11;69.52
77027;BME280;65956;52.986;17.490;2023-03-19T02:30:41;100274.47;;;4.04;69.48
77027;BME280;65956;52.986;17.490;2023-03-19T02:33:13;100276.39;;;4.02;69.47
77027;BME280;65956;52.986;17.490;2023-03-19T02:35:41;100273.40;;;4.01;69.51
77027;BME280;65956;52.986;17.490;2023-03-19T02:38:09;100269.61;;;3.97;69.62
77027;BME280;65956;52.986;17.490;2023-03-19T02:40:42;100266.30;;;3.93;69.76
77027;BME280;65956;52.986;17.490;2023-03-19T02:43:12;100265.15;;;3.87;69.88
77027;BME280;65956;52.986;17.490;2023-03-19T02:45:39;100263.52;;;3.83;69.88
77027;BME280;65956;52.986;17.490;2023-03-19T02:48:06;100264.84;;;3.80;70.09
77027;BME280;65956;52.986;17.490;2023-03-19T02:50:33;100268.05;;;3.76;70.05
77027;BME280;65956;52.986;17.490;2023-03-19T02:53:00;100268.91;;;3.74;70.19
77027;BME280;65956;52.986;17.490;2023-03-19T02:55:27;100267.08;;;3.69;70.30
77027;BME280;65956;52.986;17.490;2023-03-19T02:57:53;100265.71;;;3.67;70.24
77027;BME280;65956;52.986;17.490;2023-03-19T03:00:20;100269.25;;;3.67;70.40
77027;BME280;65956;52.986;17.490;2023-03-19T03:02:47;100268.25;;;3.69;70.22
77027;BME280;65956;52.986;17.490;2023-03-19T03:05:14;100271.13;;;3.70;70.50
77027;BME280;65956;52.986;17.490;2023-03-19T03:07:41;100270.19;;;3.71;70.50
77027;BME280;65956;52.986;17.490;2023-03-19T03:10:11;100267.24;;;3.68;70.59
77027;BME280;65956;52.986;17.490;2023-03-19T03:12:38;100266.98;;;3.69;70.57
77027;BME280;65956;52.986;17.490;2023-03-19T03:15:05;100262.61;;;3.66;70.64
77027;BME280;65956;52.986;17.490;2023-03-19T03:17:38;100270.10;;;3.61;70.77
77027;BME280;65956;52.986;17.490;2023-03-19T03:20:06;100269.77;;;3.61;70.89
77027;BME280;65956;52.986;17.490;2023-03-19T03:22:34;100272.46;;;3.61;70.88
77027;BME280;65956;52.986;17.490;2023-03-19T03:25:01;100272.34;;;3.58;70.83
77027;BME280;65956;52.986;17.490;2023-03-19T03:27:29;100273.48;;;3.55;70.69
77027;BME280;65956;52.986;17.490;2023-03-19T03:29:56;100272.80;;;3.56;70.84
77027;BME280;65956;52.986;17.490;2023-03-19T03:32:24;100273.38;;;3.59;70.68
77027;BME280;65956;52.986;17.490;2023-03-19T03:34:50;100272.86;;;3.61;70.70
77027;BME280;65956;52.986;17.490;2023-03-19T03:37:17;100273.61;;;3.60;70.72
77027;BME280;65956;52.986;17.490;2023-03-19T03:39:45;100277.44;;;3.56;70.85
77027;BME280;65956;52.986;17.490;2023-03-19T03:42:12;100281.98;;;3.50;70.72
77027;BME280;65956;52.986;17.490;2023-03-19T03:44:40;100283.41;;;3.49;71.00
77027;BME280;65956;52.986;17.490;2023-03-19T03:47:07;100280.75;;;3.47;71.09
77027;BME280;65956;52.986;17.490;2023-03-19T03:49:35;100278.00;;;3.47;71.00
77027;BME280;65956;52.986;17.490;2023-03-19T03:52:01;100279.44;;;3.51;71.03
77027;BME280;65956;52.986;17.490;2023-03-19T03:54:28;100276.57;;;3.54;71.00
77027;BME280;65956;52.986;17.490;2023-03-19T03:56:55;100279.64;;;3.56;70.95
77027;BME280;65956;52.986;17.490;2023-03-19T03:59:22;100283.02;;;3.50;71.03
77027;BME280;65956;52.986;17.490;2023-03-19T04:01:49;100285.80;;;3.48;71.02
77027;BME280;65956;52.986;17.490;2023-03-19T04:04:17;100283.09;;;3.50;71.08
77027;BME280;65956;52.986;17.490;2023-03-19T04:06:45;100289.83;;;3.56;70.87
77027;BME280;65956;52.986;17.490;2023-03-19T04:09:16;100290.30;;;3.66;70.68
77027;BME280;65956;52.986;17.490;2023-03-19T04:11:43;100288.20;;;3.76;70.89
77027;BME280;65956;52.986;17.490;2023-03-19T04:14:10;100291.16;;;3.87;70.80
77027;BME280;65956;52.986;17.490;2023-03-19T04:16:37;100293.92;;;3.98;70.47
77027;BME280;65956;52.986;17.490;2023-03-19T04:19:05;100296.27;;;4.08;70.26
77027;BME280;65956;52.986;17.490;2023-03-19T04:21:33;100293.61;;;4.17;70.31
77027;BME280;65956;52.986;17.490;2023-03-19T04:24:00;100300.28;;;4.22;70.28
77027;BME280;65956;52.986;17.490;2023-03-19T04:26:27;100296.20;;;4.19;70.31
77027;BME280;65956;52.986;17.490;2023-03-19T04:28:54;100299.77;;;4.15;70.30
77027;BME280;65956;52.986;17.490;2023-03-19T04:31:21;100298.86;;;4.11;70.62
77027;BME280;65956;52.986;17.490;2023-03-19T04:33:49;100296.38;;;4.08;70.53
77027;BME280;65956;52.986;17.490;2023-03-19T04:36:15;100295.57;;;4.06;70.40
77027;BME280;65956;52.986;17.490;2023-03-19T04:38:43;100294.16;;;4.04;70.53
77027;BME280;65956;52.986;17.490;2023-03-19T04:41:10;100296.27;;;4.05;70.53
77027;BME280;65956;52.986;17.490;2023-03-19T04:43:39;100292.38;;;4.04;70.53
77027;BME280;65956;52.986;17.490;2023-03-19T04:46:06;100293.70;;;4.02;70.84
77027;BME280;65956;52.986;17.490;2023-03-19T04:48:35;100292.34;;;4.02;70.67
77027;BME280;65956;52.986;17.490;2023-03-19T04:51:02;100288.83;;;4.06;70.35
77027;BME280;65956;52.986;17.490;2023-03-19T04:53:29;100292.60;;;4.12;70.44
77027;BME280;65956;52.986;17.490;2023-03-19T04:55:56;100292.42;;;4.14;70.79
77027;BME280;65956;52.986;17.490;2023-03-19T04:58:23;100297.63;;;4.11;70.89
77027;BME280;65956;52.986;17.490;2023-03-19T05:00:56;100299.70;;;4.06;70.95
77027;BME280;65956;52.986;17.490;2023-03-19T05:03:32;100295.73;;;4.00;70.72
77027;BME280;65956;52.986;17.490;2023-03-19T05:05:59;100292.61;;;3.95;70.88
77027;BME280;65956;52.986;17.490;2023-03-19T05:08:26;100288.96;;;3.93;71.00
77027;BME280;65956;52.986;17.490;2023-03-19T05:10:53;100289.67;;;3.91;70.89
77027;BME280;65956;52.986;17.490;2023-03-19T05:13:19;100291.95;;;3.94;70.95
77027;BME280;65956;52.986;17.490;2023-03-19T05:15:52;100293.69;;;3.97;71.02
77027;BME280;65956;52.986;17.490;2023-03-19T05:18:20;100294.73;;;3.99;71.33
77027;BME280;65956;52.986;17.490;2023-03-19T05:20:47;100291.56;;;4.00;71.55
77027;BME280;65956;52.986;17.490;2023-03-19T05:23:17;100293.22;;;4.02;71.61
77027;BME280;65956;52.986;17.490;2023-03-19T05:25:50;100290.43;;;4.03;71.54
77027;BME280;65956;52.986;17.490;2023-03-19T05:28:21;100289.59;;;4.04;71.41
77027;BME280;65956;52.986;17.490;2023-03-19T05:30:48;100285.15;;;4.05;71.49
77027;BME280;65956;52.986;17.490;2023-03-19T05:33:25;100284.90;;;4.05;71.64
77027;BME280;65956;52.986;17.490;2023-03-19T05:35:53;100285.17;;;4.04;71.86
77027;BME280;65956;52.986;17.490;2023-03-19T05:38:46;100288.81;;;4.00;71.94
77027;BME280;65956;52.986;17.490;2023-03-19T05:41:17;100295.73;;;3.98;71.91
77027;BME280;65956;52.986;17.490;2023-03-19T05:43:53;100298.73;;;4.00;71.95
77027;BME280;65956;52.986;17.490;2023-03-19T05:46:33;100302.27;;;4.02;72.02
77027;BME280;65956;52.986;17.490;2023-03-19T05:49:01;100311.38;;;4.05;71.93
77027;BME280;65956;52.986;17.490;2023-03-19T05:51:28;100313.44;;;4.09;71.84
77027;BME280;65956;52.986;17.490;2023-03-19T05:53:55;100315.11;;;4.09;71.70
77027;BME280;65956;52.986;17.490;2023-03-19T05:56:32;100318.27;;;4.08;71.46
77027;BME280;65956;52.986;17.490;2023-03-19T05:59:11;100324.27;;;4.10;71.53
77027;BME280;65956;52.986;17.490;2023-03-19T06:01:39;100319.33;;;4.14;71.27
77027;BME280;65956;52.986;17.490;2023-03-19T06:04:06;100322.29;;;4.19;71.51
77027;BME280;65956;52.986;17.490;2023-03-19T06:06:33;100323.45;;;4.22;71.29
77027;BME280;65956;52.986;17.490;2023-03-19T06:09:00;100327.30;;;4.29;71.23
77027;BME280;65956;52.986;17.490;2023-03-19T06:11:39;100327.96;;;4.39;71.18
77027;BME280;65956;52.986;17.490;2023-03-19T06:14:46;100330.33;;;4.53;71.38
77027;BME280;65956;52.986;17.490;2023-03-19T06:17:36;100337.98;;;4.66;71.37
77027;BME280;65956;52.986;17.490;2023-03-19T06:20:06;100337.81;;;4.78;71.37
77027;BME280;65956;52.986;17.490;2023-03-19T06:22:33;100340.66;;;4.91;71.02
77027;BME280;65956;52.986;17.490;2023-03-19T06:24:59;100336.34;;;5.02;70.69
77027;BME280;65956;52.986;17.490;2023-03-19T06:27:26;100340.59;;;5.12;70.68
77027;BME280;65956;52.986;17.490;2023-03-19T06:29:59;100343.25;;;5.23;70.61
77027;BME280;65956;52.986;17.490;2023-03-19T06:32:30;100345.05;;;5.33;69.91
77027;BME280;65956;52.986;17.490;2023-03-19T06:35:01;100344.18;;;5.41;69.72
77027;BME280;65956;52.986;17.490;2023-03-19T06:37:29;100342.77;;;5.48;69.11
77027;BME280;65956;52.986;17.490;2023-03-19T06:39:56;100346.69;;;5.51;68.86
77027;BME280;65956;52.986;17.490;2023-03-19T06:42:23;100348.71;;;5.59;68.60
77027;BME280;65956;52.986;17.490;2023-03-19T06:44:50;100354.33;;;5.68;68.60
77027;BME280;65956;52.986;17.490;2023-03-19T06:47:16;100356.46;;;5.76;68.81
77027;BME280;65956;52.986;17.490;2023-03-19T06:49:45;100360.04;;;5.87;68.81
77027;BME280;65956;52.986;17.490;2023-03-19T06:52:11;100360.48;;;6.01;68.71
77027;BME280;65956;52.986;17.490;2023-03-19T06:54:38;100358.74;;;6.19;68.70
77027;BME280;65956;52.986;17.490;2023-03-19T06:57:06;100357.75;;;6.40;68.43
77027;BME280;65956;52.986;17.490;2023-03-19T06:59:32;100361.08;;;6.59;68.11
77027;BME280;65956;52.986;17.490;2023-03-19T07:01:59;100359.02;;;6.78;68.02
77027;BME280;65956;52.986;17.490;2023-03-19T07:04:26;100356.27;;;6.93;67.63
77027;BME280;65956;52.986;17.490;2023-03-19T07:06:53;100354.50;;;7.02;66.79
77027;BME280;65956;52.986;17.490;2023-03-19T07:09:20;100360.42;;;7.12;66.70
77027;BME280;65956;52.986;17.490;2023-03-19T07:11:47;100363.83;;;7.24;66.16
77027;BME280;65956;52.986;17.490;2023-03-19T07:14:14;100364.63;;;7.37;66.12
77027;BME280;65956;52.986;17.490;2023-03-19T07:16:41;100366.89;;;7.52;65.91
77027;BME280;65956;52.986;17.490;2023-03-19T07:19:08;100367.07;;;7.71;65.76
77027;BME280;65956;52.986;17.490;2023-03-19T07:21:35;100370.73;;;7.88;64.70
77027;BME280;65956;52.986;17.490;2023-03-19T07:24:02;100368.82;;;8.02;64.07
77027;BME280;65956;52.986;17.490;2023-03-19T07:26:29;100370.92;;;8.15;63.26
77027;BME280;65956;52.986;17.490;2023-03-19T07:28:57;100368.55;;;8.27;62.82
77027;BME280;65956;52.986;17.490;2023-03-19T07:31:23;100366.48;;;8.38;62.70
77027;BME280;65956;52.986;17.490;2023-03-19T07:33:50;100367.83;;;8.43;62.32
77027;BME280;65956;52.986;17.490;2023-03-19T07:36:17;100365.84;;;8.52;62.84
77027;BME280;65956;52.986;17.490;2023-03-19T07:38:46;100368.54;;;8.61;62.18
77027;BME280;65956;52.986;17.490;2023-03-19T07:41:13;100368.02;;;8.65;61.56
77027;BME280;65956;52.986;17.490;2023-03-19T07:43:39;100370.20;;;8.73;62.22
77027;BME280;65956;52.986;17.490;2023-03-19T07:46:06;100372.27;;;8.86;62.37
77027;BME280;65956;52.986;17.490;2023-03-19T07:48:33;100371.39;;;8.93;61.36
77027;BME280;65956;52.986;17.490;2023-03-19T07:51:01;100375.95;;;8.90;61.36
77027;BME280;65956;52.986;17.490;2023-03-19T07:53:28;100371.89;;;8.90;61.18
77027;BME280;65956;52.986;17.490;2023-03-19T07:55:55;100369.09;;;8.92;61.19
77027;BME280;65956;52.986;17.490;2023-03-19T07:58:22;100366.23;;;8.99;61.42
77027;BME280;65956;52.986;17.490;2023-03-19T08:00:49;100370.30;;;9.06;61.55
77027;BME280;65956;52.986;17.490;2023-03-19T08:03:16;100365.64;;;9.15;61.49
77027;BME280;65956;52.986;17.490;2023-03-19T08:05:43;100367.22;;;9.28;61.43
77027;BME280;65956;52.986;17.490;2023-03-19T08:08:10;100371.53;;;9.39;60.73
77027;BME280;65956;52.986;17.490;2023-03-19T08:10:37;100370.40;;;9.52;61.40
77027;BME280;65956;52.986;17.490;2023-03-19T08:13:04;100369.26;;;9.62;60.09
77027;BME280;65956;52.986;17.490;2023-03-19T08:15:31;100365.21;;;9.66;59.99
77027;BME280;65956;52.986;17.490;2023-03-19T08:17:59;100363.05;;;9.69;59.69
77027;BME280;65956;52.986;17.490;2023-03-19T08:20:27;100367.55;;;9.76;59.71
77027;BME280;65956;52.986;17.490;2023-03-19T08:22:53;100369.21;;;9.78;59.47
77027;BME280;65956;52.986;17.490;2023-03-19T08:25:20;100368.89;;;9.86;59.60
77027;BME280;65956;52.986;17.490;2023-03-19T08:27:48;100365.69;;;9.96;59.68
77027;BME280;65956;52.986;17.490;2023-03-19T08:30:16;100370.95;;;10.05;59.66
77027;BME280;65956;52.986;17.490;2023-03-19T08:32:43;100369.88;;;10.18;59.36
77027;BME280;65956;52.986;17.490;2023-03-19T08:35:13;100368.40;;;10.27;58.83
77027;BME280;65956;52.986;17.490;2023-03-19T08:37:40;100368.23;;;10.35;58.22
77027;BME280;65956;52.986;17.490;2023-03-19T08:40:07;100365.64;;;10.42;58.20
77027;BME280;65956;52.986;17.490;2023-03-19T08:42:34;100362.66;;;10.53;58.67
77027;BME280;65956;52.986;17.490;2023-03-19T08:45:04;100354.84;;;10.69;58.86
77027;BME280;65956;52.986;17.490;2023-03-19T08:47:31;100350.85;;;10.88;58.95
77027;BME280;65956;52.986;17.490;2023-03-19T08:49:58;100352.21;;;11.09;58.77
77027;BME280;65956;52.986;17.490;2023-03-19T08:52:25;100354.91;;;11.24;58.02
77027;BME280;65956;52.986;17.490;2023-03-19T08:54:52;100350.90;;;11.33;57.78
77027;BME280;65956;52.986;17.490;2023-03-19T08:57:18;100350.33;;;11.43;57.07
77027;BME280;65956;52.986;17.490;2023-03-19T08:59:45;100348.58;;;11.49;57.20
77027;BME280;65956;52.986;17.490;2023-03-19T09:02:12;100344.39;;;11.64;58.15
77027;BME280;65956;52.986;17.490;2023-03-19T09:04:40;100350.56;;;11.83;57.97
77027;BME280;65956;52.986;17.490;2023-03-19T09:07:08;100343.77;;;12.01;57.43
77027;BME280;65956;52.986;17.490;2023-03-19T09:09:39;100345.36;;;12.14;57.34
77027;BME280;65956;52.986;17.490;2023-03-19T09:12:08;100348.55;;;12.22;56.44
77027;BME280;65956;52.986;17.490;2023-03-19T09:14:36;100347.78;;;12.32;55.40
77027;BME280;65956;52.986;17.490;2023-03-19T09:17:03;100348.94;;;12.43;55.43
77027;BME280;65956;52.986;17.490;2023-03-19T09:19:30;100346.91;;;12.56;54.82
77027;BME280;65956;52.986;17.490;2023-03-19T09:21:57;100347.95;;;12.64;54.23
77027;BME280;65956;52.986;17.490;2023-03-19T09:24:24;100349.13;;;12.71;55.03
77027;BME280;65956;52.986;17.490;2023-03-19T09:26:52;100354.91;;;12.74;54.54
77027;BME280;65956;52.986;17.490;2023-03-19T09:29:19;100356.18;;;12.74;55.05
77027;BME280;65956;52.986;17.490;2023-03-19T09:31:45;100354.29;;;12.77;54.64
77027;BME280;65956;52.986;17.490;2023-03-19T09:34:12;100348.42;;;12.84;54.16
77027;BME280;65956;52.986;17.490;2023-03-19T09:36:39;100344.15;;;12.87;53.74
77027;BME280;65956;52.986;17.490;2023-03-19T09:39:06;100340.54;;;12.95;53.92
77027;BME280;65956;52.986;17.490;2023-03-19T09:41:53;100345.17;;;13.06;53.32
77027;BME280;65956;52.986;17.490;2023-03-19T09:44:35;100346.96;;;13.17;53.63
77027;BME280;65956;52.986;17.490;2023-03-19T09:49:46;100341.04;;;13.39;53.37
77027;BME280;65956;52.986;17.490;2023-03-19T09:57:44;100337.73;;;13.77;52.73
77027;BME280;65956;52.986;17.490;2023-03-19T10:00:18;100337.91;;;13.87;52.57
77027;BME280;65956;52.986;17.490;2023-03-19T10:13:25;100342.92;;;14.45;50.42
77027;BME280;65956;52.986;17.490;2023-03-19T10:15:58;100343.16;;;14.46;50.56
77027;BME280;65956;52.986;17.490;2023-03-19T10:18:30;100340.61;;;14.52;50.90
77027;BME280;65956;52.986;17.490;2023-03-19T10:21:11;100346.16;;;14.67;50.74
77027;BME280;65956;52.986;17.490;2023-03-19T10:26:29;100351.27;;;14.60;48.76
77027;BME280;65956;52.986;17.490;2023-03-19T10:29:04;100352.41;;;14.66;50.17
77027;BME280;65956;52.986;17.490;2023-03-19T10:31:52;100346.23;;;14.68;47.62
77027;BME280;65956;52.986;17.490;2023-03-19T10:34:30;100341.81;;;14.53;47.98
77027;BME280;65956;52.986;17.490;2023-03-19T10:37:05;100341.73;;;14.55;48.14
77027;BME280;65956;52.986;17.490;2023-03-19T10:39:37;100345.11;;;14.73;47.98
77027;BME280;65956;52.986;17.490;2023-03-19T10:45:17;100341.35;;;15.16;49.01
77027;BME280;65956;52.986;17.490;2023-03-19T10:47:45;100338.43;;;15.32;47.41
77027;BME280;65956;52.986;17.490;2023-03-19T10:50:18;100340.49;;;15.45;48.48
77027;BME280;65956;52.986;17.490;2023-03-19T10:52:50;100339.27;;;15.65;48.28
77027;BME280;65956;52.986;17.490;2023-03-19T10:55:25;100340.33;;;15.84;47.23
77027;BME280;65956;52.986;17.490;2023-03-19T10:58:14;100339.70;;;15.77;46.59
77027;BME280;65956;52.986;17.490;2023-03-19T11:00:45;100342.32;;;15.88;47.33
77027;BME280;65956;52.986;17.490;2023-03-19T11:03:30;100339.28;;;16.02;47.18
77027;BME280;65956;52.986;17.490;2023-03-19T11:11:40;100326.06;;;16.25;45.38
77027;BME280;65956;52.986;17.490;2023-03-19T11:14:19;100328.77;;;16.31;46.12
77027;BME280;65956;52.986;17.490;2023-03-19T11:17:01;100327.90;;;16.51;45.94
77027;BME280;65956;52.986;17.490;2023-03-19T11:19:31;100325.64;;;16.69;44.77
77027;BME280;65956;52.986;17.490;2023-03-19T11:22:15;100325.05;;;16.71;44.00
77027;BME280;65956;52.986;17.490;2023-03-19T11:25:06;100317.48;;;16.75;43.71
77027;BME280;65956;52.986;17.490;2023-03-19T11:27:39;100323.05;;;16.91;45.27
77027;BME280;65956;52.986;17.490;2023-03-19T11:30:16;100322.11;;;17.15;45.04
77027;BME280;65956;52.986;17.490;2023-03-19T11:37:53;100323.42;;;17.44;42.41
77027;BME280;65956;52.986;17.490;2023-03-19T11:43:19;100327.33;;;17.48;43.14
77027;BME280;65956;52.986;17.490;2023-03-19T11:46:00;100328.44;;;17.73;41.94
77027;BME280;65956;52.986;17.490;2023-03-19T11:51:48;100325.38;;;17.73;41.12
77027;BME280;65956;52.986;17.490;2023-03-19T11:56:58;100321.70;;;18.15;41.45
77027;BME280;65956;52.986;17.490;2023-03-19T11:59:31;100326.55;;;18.21;40.83
77027;BME280;65956;52.986;17.490;2023-03-19T12:05:26;100324.29;;;18.33;40.21
77027;BME280;65956;52.986;17.490;2023-03-19T12:08:21;100326.83;;;18.30;40.15
77027;BME280;65956;52.986;17.490;2023-03-19T12:11:02;100321.34;;;18.18;40.37
77027;BME280;65956;52.986;17.490;2023-03-19T12:30:02;100297.93;;;17.79;42.23
77027;BME280;65956;52.986;17.490;2023-03-19T12:35:12;100299.77;;;17.86;41.80
77027;BME280;65956;52.986;17.490;2023-03-19T12:37:50;100305.21;;;18.30;41.22
77027;BME280;65956;52.986;17.490;2023-03-19T12:42:57;100301.46;;;18.95;40.55
77027;BME280;65956;52.986;17.490;2023-03-19T12:47:59;100302.77;;;18.85;39.95
77027;BME280;65956;52.986;17.490;2023-03-19T12:50:29;100298.52;;;18.87;40.29
77027;BME280;65956;52.986;17.490;2023-03-19T12:52:58;100296.38;;;18.85;40.17
77027;BME280;65956;52.986;17.490;2023-03-19T12:55:33;100294.69;;;18.95;40.44
77027;BME280;65956;52.986;17.490;2023-03-19T12:58:08;100291.60;;;18.82;39.52
77027;BME280;65956;52.986;17.490;2023-03-19T13:00:45;100290.94;;;18.74;40.13
77027;BME280;65956;52.986;17.490;2023-03-19T14:07:37;100257.48;;;17.38;40.95
77027;BME280;65956;52.986;17.490;2023-03-19T14:10:44;100253.61;;;17.40;40.94
77027;BME280;65956;52.986;17.490;2023-03-19T14:13:06;100250.68;;;17.43;41.06
77027;BME280;65956;52.986;17.490;2023-03-19T14:15:37;100252.41;;;17.38;41.12
77027;BME280;65956;52.986;17.490;2023-03-19T14:18:13;100247.58;;;17.32;41.71
77027;BME280;65956;52.986;17.490;2023-03-19T14:20:55;100251.19;;;17.41;41.56
77027;BME280;65956;52.986;17.490;2023-03-19T14:23:26;100255.52;;;17.42;41.67
77027;BME280;65956;52.986;17.490;2023-03-19T14:26:09;100251.61;;;17.45;42.02
77027;BME280;65956;52.986;17.490;2023-03-19T14:29:03;100254.02;;;17.47;42.22
77027;BME280;65956;52.986;17.490;2023-03-19T14:31:40;100251.95;;;17.38;41.97
77027;BME280;65956;52.986;17.490;2023-03-19T14:34:26;100254.89;;;17.25;42.09
77027;BME280;65956;52.986;17.490;2023-03-19T14:37:24;100249.29;;;17.15;42.61
77027;BME280;65956;52.986;17.490;2023-03-19T14:39:58;100248.32;;;17.08;42.89
77027;BME280;65956;52.986;17.490;2023-03-19T14:53:54;100246.20;;;16.46;44.63
77027;BME280;65956;52.986;17.490;2023-03-19T14:56:26;100243.48;;;16.23;44.66
77027;BME280;65956;52.986;17.490;2023-03-19T14:58:57;100241.00;;;15.98;45.41
77027;BME280;65956;52.986;17.490;2023-03-19T15:01:31;100241.06;;;15.72;45.65
77027;BME280;65956;52.986;17.490;2023-03-19T15:04:02;100241.70;;;15.56;45.92
77027;BME280;65956;52.986;17.490;2023-03-19T15:06:33;100246.85;;;15.47;46.75
77027;BME280;65956;52.986;17.490;2023-03-19T15:09:01;100248.82;;;15.33;47.27
77027;BME280;65956;52.986;17.490;2023-03-19T15:17:26;100253.38;;;15.11;48.40
77027;BME280;65956;52.986;17.490;2023-03-19T15:19:54;100255.48;;;14.99;48.97
77027;BME280;65956;52.986;17.490;2023-03-19T15:22:32;100251.90;;;14.86;48.60
77027;BME280;65956;52.986;17.490;2023-03-19T15:25:13;100250.95;;;14.77;48.67
77027;BME280;65956;52.986;17.490;2023-03-19T15:27:41;100250.16;;;14.66;48.94
77027;BME280;65956;52.986;17.490;2023-03-19T15:30:20;100248.88;;;14.61;49.02
77027;BME280;65956;52.986;17.490;2023-03-19T15:32:48;100253.44;;;14.57;49.12
77027;BME280;65956;52.986;17.490;2023-03-19T15:35:15;100256.81;;;14.49;49.76
77027;BME280;65956;52.986;17.490;2023-03-19T15:37:44;100257.92;;;14.38;50.05
77027;BME280;65956;52.986;17.490;2023-03-19T15:40:14;100257.97;;;14.29;50.19
77027;BME280;65956;52.986;17.490;2023-03-19T15:42:46;100258.75;;;14.21;50.07